sensor_id;sensor_type;location;lat;lon;timestamp;P1;durP1;ratioP1;P2;durP2;ratioP2
14342;SDS011;7255;53.596;9.960;2023-02-27T00:01:02;7.23;;;6.53;;
14342;SDS011;7255;53.596;9.960;2023-02-27T00:03:29;6.33;;;5.83;;
14342;SDS011;7255;53.596;9.960;2023-02-27T00:05:55;9.27;;;6.77;;
14342;SDS011;7255;53.596;9.960;2023-02-27T00:08:22;7.00;;;6.20;;
14342;SDS011;7255;53.596;9.960;2023-02-27T00:10:48;6.67;;;5.97;;
14342;SDS011;7255;53.596;9.960;2023-02-27T00:13:16;8.50;;;6.23;;
14342;SDS011;7255;53.596;9.960;2023-02-27T00:15:44;6.87;;;5.93;;
14342;SDS011;7255;53.596;9.960;2023-02-27T00:18:10;6.93;;;5.97;;
14342;SDS011;7255;53.596;9.960;2023-02-27T00:20:37;7.37;;;5.93;;
14342;SDS011;7255;53.596;9.960;2023-02-27T00:23:03;8.10;;;6.90;;
14342;SDS011;7255;53.596;9.960;2023-02-27T00:25:30;8.70;;;6.80;;
14342;SDS011;7255;53.596;9.960;2023-02-27T00:27:57;11.20;;;6.30;;
14342;SDS011;7255;53.596;9.960;2023-02-27T00:30:24;8.00;;;6.27;;
14342;SDS011;7255;53.596;9.960;2023-02-27T00:32:51;7.13;;;5.50;;
14342;SDS011;7255;53.596;9.960;2023-02-27T00:35:18;7.00;;;5.73;;
14342;SDS011;7255;53.596;9.960;2023-02-27T00:37:44;10.13;;;6.07;;
14342;SDS011;7255;53.596;9.960;2023-02-27T00:40:11;6.43;;;5.40;;
14342;SDS011;7255;53.596;9.960;2023-02-27T00:42:38;6.70;;;5.67;;
14342;SDS011;7255;53.596;9.960;2023-02-27T00:45:04;10.73;;;5.83;;
14342;SDS011;7255;53.596;9.960;2023-02-27T00:47:33;6.67;;;5.97;;
14342;SDS011;7255;53.596;9.960;2023-02-27T00:50:00;6.70;;;5.70;;
14342;SDS011;7255;53.596;9.960;2023-02-27T00:52:27;5.97;;;5.37;;
14342;SDS011;7255;53.596;9.960;2023-02-27T00:54:53;6.33;;;5.67;;
14342;SDS011;7255;53.596;9.960;2023-02-27T00:57:19;7.43;;;5.47;;
14342;SDS011;7255;53.596;9.960;2023-02-27T00:59:46;8.30;;;6.13;;
14342;SDS011;7255;53.596;9.960;2023-02-27T01:02:13;6.27;;;5.67;;
14342;SDS011;7255;53.596;9.960;2023-02-27T01:04:41;7.87;;;6.00;;
14342;SDS011;7255;53.596;9.960;2023-02-27T01:07:07;7.17;;;5.73;;
14342;SDS011;7255;53.596;9.960;2023-02-27T01:09:34;7.03;;;5.73;;
14342;SDS011;7255;53.596;9.960;2023-02-27T01:12:01;6.67;;;5.27;;
14342;SDS011;7255;53.596;9.960;2023-02-27T01:14:27;6.37;;;5.43;;
14342;SDS011;7255;53.596;9.960;2023-02-27T01:16:54;9.87;;;6.67;;
14342;SDS011;7255;53.596;9.960;2023-02-27T01:19:22;6.60;;;5.53;;
14342;SDS011;7255;53.596;9.960;2023-02-27T01:21:50;6.60;;;5.83;;
14342;SDS011;7255;53.596;9.960;2023-02-27T01:24:16;7.80;;;5.20;;
14342;SDS011;7255;53.596;9.960;2023-02-27T01:26:43;9.77;;;6.23;;
14342;SDS011;7255;53.596;9.960;2023-02-27T01:29:11;6.97;;;5.73;;
14342;SDS011;7255;53.596;9.960;2023-02-27T01:31:37;8.83;;;5.57;;
14342;SDS011;7255;53.596;9.960;2023-02-27T01:34:04;6.63;;;5.93;;
14342;SDS011;7255;53.596;9.960;2023-02-27T01:36:30;6.90;;;6.23;;
14342;SDS011;7255;53.596;9.960;2023-02-27T01:38:58;6.20;;;5.40;;
14342;SDS011;7255;53.596;9.960;2023-02-27T01:41:24;8.00;;;6.07;;
14342;SDS011;7255;53.596;9.960;2023-02-27T01:43:57;8.57;;;5.77;;
14342;SDS011;7255;53.596;9.960;2023-02-27T01:46:25;7.63;;;6.93;;
14342;SDS011;7255;53.596;9.960;2023-02-27T01:48:53;7.70;;;6.20;;
14342;SDS011;7255;53.596;9.960;2023-02-27T01:51:23;6.27;;;5.67;;
14342;SDS011;7255;53.596;9.960;2023-02-27T01:53:52;10.40;;;6.83;;
14342;SDS011;7255;53.596;9.960;2023-02-27T01:56:21;7.60;;;6.07;;
14342;SDS011;7255;53.596;9.960;2023-02-27T01:58:50;6.93;;;6.30;;
14342;SDS011;7255;53.596;9.960;2023-02-27T02:01:21;10.33;;;6.23;;
14342;SDS011;7255;53.596;9.960;2023-02-27T02:03:49;8.43;;;6.33;;
14342;SDS011;7255;53.596;9.960;2023-02-27T02:06:23;6.97;;;6.23;;
14342;SDS011;7255;53.596;9.960;2023-02-27T02:08:50;6.60;;;6.00;;
14342;SDS011;7255;53.596;9.960;2023-02-27T02:11:18;7.63;;;6.77;;
14342;SDS011;7255;53.596;9.960;2023-02-27T02:13:48;10.73;;;5.93;;
14342;SDS011;7255;53.596;9.960;2023-02-27T02:16:20;7.90;;;7.10;;
14342;SDS011;7255;53.596;9.960;2023-02-27T02:18:58;7.20;;;5.63;;
14342;SDS011;7255;53.596;9.960;2023-02-27T02:21:52;7.13;;;6.30;;
14342;SDS011;7255;53.596;9.960;2023-02-27T02:24:48;6.60;;;6.00;;
14342;SDS011;7255;53.596;9.960;2023-02-27T02:27:56;7.63;;;5.90;;
14342;SDS011;7255;53.596;9.960;2023-02-27T02:30:52;7.00;;;6.20;;
14342;SDS011;7255;53.596;9.960;2023-02-27T02:33:41;9.47;;;5.90;;
14342;SDS011;7255;53.596;9.960;2023-02-27T02:36:39;9.07;;;6.33;;
14342;SDS011;7255;53.596;9.960;2023-02-27T02:39:35;6.53;;;5.87;;
14342;SDS011;7255;53.596;9.960;2023-02-27T02:42:11;8.30;;;6.03;;
14342;SDS011;7255;53.596;9.960;2023-02-27T02:44:47;9.47;;;6.50;;
14342;SDS011;7255;53.596;9.960;2023-02-27T02:47:21;8.10;;;5.87;;
14342;SDS011;7255;53.596;9.960;2023-02-27T02:49:55;7.57;;;5.90;;
14342;SDS011;7255;53.596;9.960;2023-02-27T02:52:28;6.67;;;5.97;;
14342;SDS011;7255;53.596;9.960;2023-02-27T02:55:07;8.23;;;6.07;;
14342;SDS011;7255;53.596;9.960;2023-02-27T02:57:39;9.53;;;6.23;;
14342;SDS011;7255;53.596;9.960;2023-02-27T03:00:12;7.43;;;6.07;;
14342;SDS011;7255;53.596;9.960;2023-02-27T03:02:42;8.80;;;6.37;;
14342;SDS011;7255;53.596;9.960;2023-02-27T03:05:13;7.80;;;5.43;;
14342;SDS011;7255;53.596;9.960;2023-02-27T03:07:44;7.13;;;5.50;;
14342;SDS011;7255;53.596;9.960;2023-02-27T03:10:18;7.27;;;5.50;;
14342;SDS011;7255;53.596;9.960;2023-02-27T03:12:51;7.07;;;6.37;;
14342;SDS011;7255;53.596;9.960;2023-02-27T03:15:23;9.20;;;6.13;;
14342;SDS011;7255;53.596;9.960;2023-02-27T03:17:53;7.70;;;5.93;;
14342;SDS011;7255;53.596;9.960;2023-02-27T03:20:27;8.00;;;5.70;;
14342;SDS011;7255;53.596;9.960;2023-02-27T03:22:58;8.90;;;5.80;;
14342;SDS011;7255;53.596;9.960;2023-02-27T03:25:30;7.67;;;6.07;;
14342;SDS011;7255;53.596;9.960;2023-02-27T03:27:59;6.10;;;5.60;;
14342;SDS011;7255;53.596;9.960;2023-02-27T03:30:29;8.30;;;5.70;;
14342;SDS011;7255;53.596;9.960;2023-02-27T03:33:01;6.73;;;6.07;;
14342;SDS011;7255;53.596;9.960;2023-02-27T03:35:39;8.43;;;6.30;;
14342;SDS011;7255;53.596;9.960;2023-02-27T03:38:16;9.07;;;5.70;;
14342;SDS011;7255;53.596;9.960;2023-02-27T03:40:51;7.10;;;5.53;;
14342;SDS011;7255;53.596;9.960;2023-02-27T03:43:26;11.00;;;6.67;;
14342;SDS011;7255;53.596;9.960;2023-02-27T03:46:00;7.87;;;6.07;;
14342;SDS011;7255;53.596;9.960;2023-02-27T03:48:30;6.80;;;6.13;;
14342;SDS011;7255;53.596;9.960;2023-02-27T03:50:56;8.77;;;6.43;;
14342;SDS011;7255;53.596;9.960;2023-02-27T03:53:24;7.30;;;6.10;;
14342;SDS011;7255;53.596;9.960;2023-02-27T03:55:58;7.13;;;5.93;;
14342;SDS011;7255;53.596;9.960;2023-02-27T03:58:27;6.77;;;5.73;;
14342;SDS011;7255;53.596;9.960;2023-02-27T04:00:55;7.27;;;6.17;;
14342;SDS011;7255;53.596;9.960;2023-02-27T04:03:21;9.13;;;6.30;;
14342;SDS011;7255;53.596;9.960;2023-02-27T04:05:48;6.57;;;5.87;;
14342;SDS011;7255;53.596;9.960;2023-02-27T04:08:20;9.53;;;6.17;;
14342;SDS011;7255;53.596;9.960;2023-02-27T04:11:05;7.10;;;6.23;;
14342;SDS011;7255;53.596;9.960;2023-02-27T04:13:55;7.37;;;6.60;;
14342;SDS011;7255;53.596;9.960;2023-02-27T04:16:49;11.10;;;7.10;;
14342;SDS011;7255;53.596;9.960;2023-02-27T04:19:35;11.10;;;6.60;;
14342;SDS011;7255;53.596;9.960;2023-02-27T04:22:14;6.70;;;5.80;;
14342;SDS011;7255;53.596;9.960;2023-02-27T04:24:51;7.53;;;6.83;;
14342;SDS011;7255;53.596;9.960;2023-02-27T04:27:28;7.97;;;6.30;;
14342;SDS011;7255;53.596;9.960;2023-02-27T04:30:04;11.00;;;6.70;;
14342;SDS011;7255;53.596;9.960;2023-02-27T04:32:42;7.60;;;6.10;;
14342;SDS011;7255;53.596;9.960;2023-02-27T04:35:16;8.47;;;6.20;;
14342;SDS011;7255;53.596;9.960;2023-02-27T04:37:47;6.80;;;6.10;;
14342;SDS011;7255;53.596;9.960;2023-02-27T04:40:18;9.70;;;6.73;;
14342;SDS011;7255;53.596;9.960;2023-02-27T04:42:50;6.33;;;5.83;;
14342;SDS011;7255;53.596;9.960;2023-02-27T04:45:20;8.43;;;6.37;;
14342;SDS011;7255;53.596;9.960;2023-02-27T04:47:50;7.43;;;6.70;;
14342;SDS011;7255;53.596;9.960;2023-02-27T04:50:22;8.03;;;6.50;;
14342;SDS011;7255;53.596;9.960;2023-02-27T04:52:53;12.30;;;6.60;;
14342;SDS011;7255;53.596;9.960;2023-02-27T04:55:24;9.80;;;6.97;;
14342;SDS011;7255;53.596;9.960;2023-02-27T04:57:56;7.97;;;6.23;;
14342;SDS011;7255;53.596;9.960;2023-02-27T05:00:26;9.07;;;6.67;;
14342;SDS011;7255;53.596;9.960;2023-02-27T05:02:56;7.67;;;6.33;;
14342;SDS011;7255;53.596;9.960;2023-02-27T05:05:27;9.33;;;6.43;;
14342;SDS011;7255;53.596;9.960;2023-02-27T05:07:58;11.17;;;6.40;;
14342;SDS011;7255;53.596;9.960;2023-02-27T05:10:29;6.77;;;6.17;;
14342;SDS011;7255;53.596;9.960;2023-02-27T05:13:03;7.63;;;6.63;;
14342;SDS011;7255;53.596;9.960;2023-02-27T05:15:35;10.60;;;6.97;;
14342;SDS011;7255;53.596;9.960;2023-02-27T05:18:07;9.50;;;6.97;;
14342;SDS011;7255;53.596;9.960;2023-02-27T05:20:38;8.37;;;6.13;;
14342;SDS011;7255;53.596;9.960;2023-02-27T05:23:15;7.93;;;6.60;;
14342;SDS011;7255;53.596;9.960;2023-02-27T05:25:47;8.17;;;7.10;;
14342;SDS011;7255;53.596;9.960;2023-02-27T05:28:22;7.47;;;6.77;;
14342;SDS011;7255;53.596;9.960;2023-02-27T05:30:55;8.27;;;6.60;;
14342;SDS011;7255;53.596;9.960;2023-02-27T05:33:28;7.53;;;6.83;;
14342;SDS011;7255;53.596;9.960;2023-02-27T05:35:59;7.40;;;6.63;;
14342;SDS011;7255;53.596;9.960;2023-02-27T05:38:31;8.00;;;7.20;;
14342;SDS011;7255;53.596;9.960;2023-02-27T05:41:02;10.13;;;6.43;;
14342;SDS011;7255;53.596;9.960;2023-02-27T05:43:35;11.10;;;6.90;;
14342;SDS011;7255;53.596;9.960;2023-02-27T05:46:07;7.83;;;7.07;;
14342;SDS011;7255;53.596;9.960;2023-02-27T05:48:38;7.60;;;6.83;;
14342;SDS011;7255;53.596;9.960;2023-02-27T05:51:09;8.43;;;6.73;;
14342;SDS011;7255;53.596;9.960;2023-02-27T05:53:38;9.83;;;7.20;;
14342;SDS011;7255;53.596;9.960;2023-02-27T05:56:09;9.57;;;7.23;;
14342;SDS011;7255;53.596;9.960;2023-02-27T05:58:41;8.17;;;6.70;;
14342;SDS011;7255;53.596;9.960;2023-02-27T06:01:11;9.07;;;6.77;;
14342;SDS011;7255;53.596;9.960;2023-02-27T06:03:38;10.60;;;6.97;;
14342;SDS011;7255;53.596;9.960;2023-02-27T06:06:06;8.30;;;7.00;;
14342;SDS011;7255;53.596;9.960;2023-02-27T06:08:36;9.80;;;6.80;;
14342;SDS011;7255;53.596;9.960;2023-02-27T06:11:05;9.87;;;7.03;;
14342;SDS011;7255;53.596;9.960;2023-02-27T06:13:32;15.87;;;8.13;;
14342;SDS011;7255;53.596;9.960;2023-02-27T06:15:59;9.67;;;7.90;;
14342;SDS011;7255;53.596;9.960;2023-02-27T06:18:26;10.27;;;7.77;;
14342;SDS011;7255;53.596;9.960;2023-02-27T06:20:52;8.40;;;7.60;;
14342;SDS011;7255;53.596;9.960;2023-02-27T06:23:27;8.67;;;7.03;;
14342;SDS011;7255;53.596;9.960;2023-02-27T06:25:53;13.47;;;7.30;;
14342;SDS011;7255;53.596;9.960;2023-02-27T06:28:19;10.67;;;7.90;;
14342;SDS011;7255;53.596;9.960;2023-02-27T06:30:45;8.80;;;8.00;;
14342;SDS011;7255;53.596;9.960;2023-02-27T06:33:13;10.10;;;7.60;;
14342;SDS011;7255;53.596;9.960;2023-02-27T06:35:39;10.83;;;8.67;;
14342;SDS011;7255;53.596;9.960;2023-02-27T06:38:06;11.07;;;8.20;;
14342;SDS011;7255;53.596;9.960;2023-02-27T06:40:32;8.60;;;7.67;;
14342;SDS011;7255;53.596;9.960;2023-02-27T06:42:58;10.60;;;7.60;;
14342;SDS011;7255;53.596;9.960;2023-02-27T06:45:24;10.73;;;7.77;;
14342;SDS011;7255;53.596;9.960;2023-02-27T06:47:51;8.83;;;7.80;;
14342;SDS011;7255;53.596;9.960;2023-02-27T06:50:18;12.27;;;8.87;;
14342;SDS011;7255;53.596;9.960;2023-02-27T06:52:45;10.23;;;8.27;;
14342;SDS011;7255;53.596;9.960;2023-02-27T06:55:11;11.30;;;8.47;;
14342;SDS011;7255;53.596;9.960;2023-02-27T06:57:43;12.37;;;8.07;;
14342;SDS011;7255;53.596;9.960;2023-02-27T07:00:11;9.20;;;7.57;;
14342;SDS011;7255;53.596;9.960;2023-02-27T07:02:38;10.00;;;8.43;;
14342;SDS011;7255;53.596;9.960;2023-02-27T07:05:05;14.17;;;9.17;;
14342;SDS011;7255;53.596;9.960;2023-02-27T07:07:36;11.57;;;9.17;;
14342;SDS011;7255;53.596;9.960;2023-02-27T07:10:03;11.87;;;8.57;;
14342;SDS011;7255;53.596;9.960;2023-02-27T07:12:29;9.57;;;8.23;;
14342;SDS011;7255;53.596;9.960;2023-02-27T07:14:56;11.20;;;8.37;;
14342;SDS011;7255;53.596;9.960;2023-02-27T07:17:22;9.33;;;8.37;;
14342;SDS011;7255;53.596;9.960;2023-02-27T07:19:49;10.50;;;8.50;;
14342;SDS011;7255;53.596;9.960;2023-02-27T07:22:15;15.77;;;9.83;;
14342;SDS011;7255;53.596;9.960;2023-02-27T07:24:43;18.23;;;10.17;;
14342;SDS011;7255;53.596;9.960;2023-02-27T07:27:09;10.57;;;9.53;;
14342;SDS011;7255;53.596;9.960;2023-02-27T07:29:35;14.50;;;9.20;;
14342;SDS011;7255;53.596;9.960;2023-02-27T07:32:05;11.10;;;9.43;;
14342;SDS011;7255;53.596;9.960;2023-02-27T07:34:31;12.87;;;10.20;;
14342;SDS011;7255;53.596;9.960;2023-02-27T07:36:59;13.17;;;10.33;;
14342;SDS011;7255;53.596;9.960;2023-02-27T07:39:26;16.10;;;10.30;;
14342;SDS011;7255;53.596;9.960;2023-02-27T07:41:54;12.20;;;10.90;;
14342;SDS011;7255;53.596;9.960;2023-02-27T07:44:20;19.23;;;9.80;;
14342;SDS011;7255;53.596;9.960;2023-02-27T07:46:56;12.50;;;10.07;;
14342;SDS011;7255;53.596;9.960;2023-02-27T07:49:23;13.13;;;9.93;;
14342;SDS011;7255;53.596;9.960;2023-02-27T07:51:49;13.67;;;10.23;;
14342;SDS011;7255;53.596;9.960;2023-02-27T07:54:16;14.03;;;10.77;;
14342;SDS011;7255;53.596;9.960;2023-02-27T07:56:42;12.23;;;10.20;;
14342;SDS011;7255;53.596;9.960;2023-02-27T07:59:10;11.83;;;10.57;;
14342;SDS011;7255;53.596;9.960;2023-02-27T08:01:36;13.77;;;9.33;;
14342;SDS011;7255;53.596;9.960;2023-02-27T08:04:03;18.73;;;10.23;;
14342;SDS011;7255;53.596;9.960;2023-02-27T08:06:29;15.20;;;9.87;;
14342;SDS011;7255;53.596;9.960;2023-02-27T08:08:55;12.93;;;10.00;;
14342;SDS011;7255;53.596;9.960;2023-02-27T08:11:22;13.20;;;9.80;;
14342;SDS011;7255;53.596;9.960;2023-02-27T08:13:48;11.13;;;9.77;;
14342;SDS011;7255;53.596;9.960;2023-02-27T08:16:16;16.30;;;9.77;;
14342;SDS011;7255;53.596;9.960;2023-02-27T08:18:42;11.50;;;10.00;;
14342;SDS011;7255;53.596;9.960;2023-02-27T08:21:08;17.73;;;10.57;;
14342;SDS011;7255;53.596;9.960;2023-02-27T08:23:35;15.07;;;9.63;;
14342;SDS011;7255;53.596;9.960;2023-02-27T08:26:01;13.83;;;9.57;;
14342;SDS011;7255;53.596;9.960;2023-02-27T08:28:27;11.53;;;9.27;;
14342;SDS011;7255;53.596;9.960;2023-02-27T08:30:54;14.90;;;9.07;;
14342;SDS011;7255;53.596;9.960;2023-02-27T08:33:22;10.23;;;9.10;;
14342;SDS011;7255;53.596;9.960;2023-02-27T08:35:50;13.13;;;9.07;;
14342;SDS011;7255;53.596;9.960;2023-02-27T08:38:18;9.47;;;7.97;;
14342;SDS011;7255;53.596;9.960;2023-02-27T08:40:44;12.20;;;8.93;;
14342;SDS011;7255;53.596;9.960;2023-02-27T08:43:11;14.07;;;8.90;;
14342;SDS011;7255;53.596;9.960;2023-02-27T08:45:37;10.40;;;7.43;;
14342;SDS011;7255;53.596;9.960;2023-02-27T08:48:04;13.53;;;8.27;;
14342;SDS011;7255;53.596;9.960;2023-02-27T08:50:32;13.90;;;8.37;;
14342;SDS011;7255;53.596;9.960;2023-02-27T08:52:59;11.07;;;8.33;;
14342;SDS011;7255;53.596;9.960;2023-02-27T08:55:25;10.47;;;7.60;;
14342;SDS011;7255;53.596;9.960;2023-02-27T08:57:53;16.13;;;7.97;;
14342;SDS011;7255;53.596;9.960;2023-02-27T09:00:19;12.00;;;7.73;;
14342;SDS011;7255;53.596;9.960;2023-02-27T09:02:46;9.80;;;7.47;;
14342;SDS011;7255;53.596;9.960;2023-02-27T09:05:13;8.87;;;6.17;;
14342;SDS011;7255;53.596;9.960;2023-02-27T09:07:40;11.27;;;7.73;;
14342;SDS011;7255;53.596;9.960;2023-02-27T09:10:07;11.10;;;6.27;;
14342;SDS011;7255;53.596;9.960;2023-02-27T09:12:34;10.30;;;6.20;;
14342;SDS011;7255;53.596;9.960;2023-02-27T09:15:01;10.53;;;6.53;;
14342;SDS011;7255;53.596;9.960;2023-02-27T09:17:29;8.07;;;6.17;;
14342;SDS011;7255;53.596;9.960;2023-02-27T09:19:56;11.87;;;5.73;;
14342;SDS011;7255;53.596;9.960;2023-02-27T09:22:22;7.70;;;4.77;;
14342;SDS011;7255;53.596;9.960;2023-02-27T09:24:50;5.77;;;4.53;;
14342;SDS011;7255;53.596;9.960;2023-02-27T09:27:16;11.10;;;4.37;;
14342;SDS011;7255;53.596;9.960;2023-02-27T09:29:43;7.40;;;3.77;;
14342;SDS011;7255;53.596;9.960;2023-02-27T09:32:09;5.43;;;3.80;;
14342;SDS011;7255;53.596;9.960;2023-02-27T09:34:36;5.77;;;3.70;;
14342;SDS011;7255;53.596;9.960;2023-02-27T09:37:02;6.83;;;3.47;;
14342;SDS011;7255;53.596;9.960;2023-02-27T09:39:28;6.03;;;3.40;;
14342;SDS011;7255;53.596;9.960;2023-02-27T09:41:57;8.40;;;3.60;;
14342;SDS011;7255;53.596;9.960;2023-02-27T09:44:36;4.50;;;2.90;;
14342;SDS011;7255;53.596;9.960;2023-02-27T09:47:08;3.43;;;2.80;;
14342;SDS011;7255;53.596;9.960;2023-02-27T09:49:42;5.47;;;2.90;;
14342;SDS011;7255;53.596;9.960;2023-02-27T09:52:20;8.87;;;3.07;;
14342;SDS011;7255;53.596;9.960;2023-02-27T09:54:46;4.20;;;2.47;;
14342;SDS011;7255;53.596;9.960;2023-02-27T09:57:15;4.87;;;3.20;;
14342;SDS011;7255;53.596;9.960;2023-02-27T09:59:48;4.83;;;2.67;;
14342;SDS011;7255;53.596;9.960;2023-02-27T10:02:29;6.70;;;2.67;;
14342;SDS011;7255;53.596;9.960;2023-02-27T10:05:07;2.57;;;2.27;;
14342;SDS011;7255;53.596;9.960;2023-02-27T10:07:47;3.37;;;2.83;;
14342;SDS011;7255;53.596;9.960;2023-02-27T10:10:20;3.33;;;2.93;;
14342;SDS011;7255;53.596;9.960;2023-02-27T10:13:00;3.10;;;2.80;;
14342;SDS011;7255;53.596;9.960;2023-02-27T10:15:40;4.17;;;3.10;;
14342;SDS011;7255;53.596;9.960;2023-02-27T10:18:11;6.10;;;2.57;;
14342;SDS011;7255;53.596;9.960;2023-02-27T10:20:42;4.03;;;2.53;;
14342;SDS011;7255;53.596;9.960;2023-02-27T10:23:16;4.57;;;2.47;;
14342;SDS011;7255;53.596;9.960;2023-02-27T10:25:47;4.13;;;3.23;;
14342;SDS011;7255;53.596;9.960;2023-02-27T10:28:18;4.57;;;2.17;;
14342;SDS011;7255;53.596;9.960;2023-02-27T10:30:46;5.33;;;2.67;;
14342;SDS011;7255;53.596;9.960;2023-02-27T10:33:16;2.77;;;2.57;;
14342;SDS011;7255;53.596;9.960;2023-02-27T10:35:50;6.37;;;2.80;;
14342;SDS011;7255;53.596;9.960;2023-02-27T10:38:18;3.83;;;3.00;;
14342;SDS011;7255;53.596;9.960;2023-02-27T10:40:50;7.47;;;2.80;;
14342;SDS011;7255;53.596;9.960;2023-02-27T10:43:21;4.00;;;2.47;;
14342;SDS011;7255;53.596;9.960;2023-02-27T10:45:47;7.73;;;2.77;;
14342;SDS011;7255;53.596;9.960;2023-02-27T10:48:14;6.60;;;3.00;;
14342;SDS011;7255;53.596;9.960;2023-02-27T10:50:42;2.90;;;2.63;;
14342;SDS011;7255;53.596;9.960;2023-02-27T10:53:18;5.27;;;2.83;;
14342;SDS011;7255;53.596;9.960;2023-02-27T10:55:47;5.23;;;2.87;;
14342;SDS011;7255;53.596;9.960;2023-02-27T10:58:24;4.63;;;2.90;;
14342;SDS011;7255;53.596;9.960;2023-02-27T11:00:56;3.80;;;2.67;;
14342;SDS011;7255;53.596;9.960;2023-02-27T11:03:24;5.17;;;2.67;;
14342;SDS011;7255;53.596;9.960;2023-02-27T11:05:54;3.13;;;2.63;;
14342;SDS011;7255;53.596;9.960;2023-02-27T11:08:23;3.87;;;2.83;;
14342;SDS011;7255;53.596;9.960;2023-02-27T11:10:52;3.33;;;2.50;;
14342;SDS011;7255;53.596;9.960;2023-02-27T11:13:21;5.90;;;2.60;;
14342;SDS011;7255;53.596;9.960;2023-02-27T11:16:01;3.90;;;2.77;;
14342;SDS011;7255;53.596;9.960;2023-02-27T11:18:30;3.00;;;1.97;;
14342;SDS011;7255;53.596;9.960;2023-02-27T11:21:09;3.10;;;2.60;;
14342;SDS011;7255;53.596;9.960;2023-02-27T11:23:48;2.37;;;2.17;;
14342;SDS011;7255;53.596;9.960;2023-02-27T11:26:18;2.85;;;2.22;;
14342;SDS011;7255;53.596;9.960;2023-02-27T11:28:54;4.00;;;2.80;;
14342;SDS011;7255;53.596;9.960;2023-02-27T11:31:31;3.90;;;2.20;;
14342;SDS011;7255;53.596;9.960;2023-02-27T11:33:58;4.40;;;2.62;;
14342;SDS011;7255;53.596;9.960;2023-02-27T11:36:36;2.73;;;2.30;;
14342;SDS011;7255;53.596;9.960;2023-02-27T11:39:04;3.83;;;2.57;;
14342;SDS011;7255;53.596;9.960;2023-02-27T11:41:31;4.57;;;2.30;;
14342;SDS011;7255;53.596;9.960;2023-02-27T11:44:00;2.60;;;1.95;;
14342;SDS011;7255;53.596;9.960;2023-02-27T11:46:30;3.03;;;2.35;;
14342;SDS011;7255;53.596;9.960;2023-02-27T11:48:58;4.82;;;2.35;;
14342;SDS011;7255;53.596;9.960;2023-02-27T11:51:35;3.40;;;2.37;;
14342;SDS011;7255;53.596;9.960;2023-02-27T11:54:13;2.55;;;2.35;;
14342;SDS011;7255;53.596;9.960;2023-02-27T11:56:45;4.45;;;2.25;;
14342;SDS011;7255;53.596;9.960;2023-02-27T12:02:09;4.97;;;2.70;;
14342;SDS011;7255;53.596;9.960;2023-02-27T12:04:43;3.85;;;2.17;;
14342;SDS011;7255;53.596;9.960;2023-02-27T12:07:15;3.92;;;2.42;;
14342;SDS011;7255;53.596;9.960;2023-02-27T12:09:48;3.95;;;2.75;;
14342;SDS011;7255;53.596;9.960;2023-02-27T12:12:20;5.28;;;2.65;;
14342;SDS011;7255;53.596;9.960;2023-02-27T12:14:52;6.62;;;2.65;;
14342;SDS011;7255;53.596;9.960;2023-02-27T12:17:28;5.55;;;2.62;;
14342;SDS011;7255;53.596;9.960;2023-02-27T12:19:59;6.10;;;2.50;;
14342;SDS011;7255;53.596;9.960;2023-02-27T12:22:34;7.37;;;3.25;;
14342;SDS011;7255;53.596;9.960;2023-02-27T12:25:03;4.47;;;3.15;;
14342;SDS011;7255;53.596;9.960;2023-02-27T12:27:37;6.07;;;2.40;;
14342;SDS011;7255;53.596;9.960;2023-02-27T12:30:12;6.87;;;3.00;;
14342;SDS011;7255;53.596;9.960;2023-02-27T12:32:46;6.43;;;3.22;;
14342;SDS011;7255;53.596;9.960;2023-02-27T12:35:18;5.75;;;3.03;;
14342;SDS011;7255;53.596;9.960;2023-02-27T12:37:49;3.33;;;2.42;;
14342;SDS011;7255;53.596;9.960;2023-02-27T12:40:16;4.75;;;2.62;;
14342;SDS011;7255;53.596;9.960;2023-02-27T12:42:53;3.80;;;2.30;;
14342;SDS011;7255;53.596;9.960;2023-02-27T12:45:41;5.20;;;2.30;;
14342;SDS011;7255;53.596;9.960;2023-02-27T12:48:30;3.67;;;2.33;;
14342;SDS011;7255;53.596;9.960;2023-02-27T12:51:08;3.50;;;2.00;;
14342;SDS011;7255;53.596;9.960;2023-02-27T12:53:51;3.42;;;2.10;;
14342;SDS011;7255;53.596;9.960;2023-02-27T12:56:30;3.63;;;2.00;;
14342;SDS011;7255;53.596;9.960;2023-02-27T12:59:04;2.20;;;1.67;;
14342;SDS011;7255;53.596;9.960;2023-02-27T13:01:44;1.90;;;1.80;;
14342;SDS011;7255;53.596;9.960;2023-02-27T13:04:19;2.20;;;1.93;;
14342;SDS011;7255;53.596;9.960;2023-02-27T13:06:52;2.50;;;1.80;;
14342;SDS011;7255;53.596;9.960;2023-02-27T13:09:27;4.60;;;2.13;;
14342;SDS011;7255;53.596;9.960;2023-02-27T13:12:06;3.67;;;1.80;;
14342;SDS011;7255;53.596;9.960;2023-02-27T13:14:42;3.77;;;1.80;;
14342;SDS011;7255;53.596;9.960;2023-02-27T13:17:16;2.85;;;1.70;;
14342;SDS011;7255;53.596;9.960;2023-02-27T13:19:49;2.75;;;1.70;;
14342;SDS011;7255;53.596;9.960;2023-02-27T13:22:22;1.87;;;1.60;;
14342;SDS011;7255;53.596;9.960;2023-02-27T13:24:56;2.28;;;1.27;;
14342;SDS011;7255;53.596;9.960;2023-02-27T13:27:27;1.60;;;1.50;;
14342;SDS011;7255;53.596;9.960;2023-02-27T13:30:03;2.00;;;1.75;;
14342;SDS011;7255;53.596;9.960;2023-02-27T13:32:39;1.62;;;1.45;;
14342;SDS011;7255;53.596;9.960;2023-02-27T13:35:15;2.03;;;1.50;;
14342;SDS011;7255;53.596;9.960;2023-02-27T13:37:50;2.65;;;1.70;;
14342;SDS011;7255;53.596;9.960;2023-02-27T13:40:26;4.07;;;1.40;;
14342;SDS011;7255;53.596;9.960;2023-02-27T13:42:58;1.95;;;1.50;;
14342;SDS011;7255;53.596;9.960;2023-02-27T13:45:46;3.83;;;1.80;;
14342;SDS011;7255;53.596;9.960;2023-02-27T13:48:37;4.05;;;1.70;;
14342;SDS011;7255;53.596;9.960;2023-02-27T13:54:25;3.67;;;1.90;;
14342;SDS011;7255;53.596;9.960;2023-02-27T13:59:53;3.03;;;1.63;;
14342;SDS011;7255;53.596;9.960;2023-02-27T14:02:27;2.10;;;1.90;;
14342;SDS011;7255;53.596;9.960;2023-02-27T14:05:07;2.93;;;1.70;;
14342;SDS011;7255;53.596;9.960;2023-02-27T14:07:48;3.00;;;1.90;;
14342;SDS011;7255;53.596;9.960;2023-02-27T14:10:20;2.37;;;1.63;;
14342;SDS011;7255;53.596;9.960;2023-02-27T14:12:49;3.70;;;2.03;;
14342;SDS011;7255;53.596;9.960;2023-02-27T14:24:13;2.50;;;2.00;;
14342;SDS011;7255;53.596;9.960;2023-02-27T14:26:41;4.32;;;1.70;;
14342;SDS011;7255;53.596;9.960;2023-02-27T14:29:13;2.00;;;1.60;;
14342;SDS011;7255;53.596;9.960;2023-02-27T14:31:43;4.30;;;2.10;;
14342;SDS011;7255;53.596;9.960;2023-02-27T14:34:11;3.42;;;1.85;;
14342;SDS011;7255;53.596;9.960;2023-02-27T14:36:41;1.77;;;1.67;;
14342;SDS011;7255;53.596;9.960;2023-02-27T14:39:16;3.23;;;1.60;;
14342;SDS011;7255;53.596;9.960;2023-02-27T14:41:47;2.83;;;1.90;;
14342;SDS011;7255;53.596;9.960;2023-02-27T14:44:21;2.92;;;2.08;;
14342;SDS011;7255;53.596;9.960;2023-02-27T14:46:50;4.15;;;2.00;;
14342;SDS011;7255;53.596;9.960;2023-02-27T14:49:20;1.70;;;1.50;;
14342;SDS011;7255;53.596;9.960;2023-02-27T14:51:48;3.50;;;1.80;;
14342;SDS011;7255;53.596;9.960;2023-02-27T14:54:16;1.80;;;1.70;;
14342;SDS011;7255;53.596;9.960;2023-02-27T14:56:53;2.60;;;1.90;;
14342;SDS011;7255;53.596;9.960;2023-02-27T14:59:21;5.10;;;1.60;;
14342;SDS011;7255;53.596;9.960;2023-02-27T15:01:48;2.03;;;1.60;;
14342;SDS011;7255;53.596;9.960;2023-02-27T15:04:15;2.33;;;1.70;;
14342;SDS011;7255;53.596;9.960;2023-02-27T15:06:45;2.97;;;1.70;;
14342;SDS011;7255;53.596;9.960;2023-02-27T15:09:16;1.80;;;1.60;;
14342;SDS011;7255;53.596;9.960;2023-02-27T15:11:47;1.67;;;1.57;;
14342;SDS011;7255;53.596;9.960;2023-02-27T15:14:18;2.47;;;1.73;;
14342;SDS011;7255;53.596;9.960;2023-02-27T15:16:49;4.57;;;1.77;;
14342;SDS011;7255;53.596;9.960;2023-02-27T15:19:19;3.60;;;1.77;;
14342;SDS011;7255;53.596;9.960;2023-02-27T15:21:47;4.23;;;1.83;;
14342;SDS011;7255;53.596;9.960;2023-02-27T15:24:22;5.27;;;1.80;;
14342;SDS011;7255;53.596;9.960;2023-02-27T15:26:53;2.70;;;1.93;;
14342;SDS011;7255;53.596;9.960;2023-02-27T15:29:25;2.10;;;1.90;;
14342;SDS011;7255;53.596;9.960;2023-02-27T15:31:56;2.47;;;2.10;;
14342;SDS011;7255;53.596;9.960;2023-02-27T15:34:23;7.37;;;2.27;;
14342;SDS011;7255;53.596;9.960;2023-02-27T15:36:50;2.03;;;1.87;;
14342;SDS011;7255;53.596;9.960;2023-02-27T15:39:20;4.93;;;2.60;;